createdAt,value
2018-09-08T06:06:19.069Z,99.90
2018-09-08T06:08:46.558Z,99.90
2018-09-08T06:11:14.078Z,99.90
2018-09-08T06:13:41.783Z,99.90
2018-09-08T06:16:09.261Z,99.90
2018-09-08T06:18:36.798Z,99.90
2018-09-08T06:21:04.387Z,99.90
2018-09-08T06:23:31.913Z,99.90
2018-09-08T06:25:59.528Z,99.90
2018-09-08T06:28:27.118Z,99.90
2018-09-08T06:30:54.550Z,99.90
2018-09-08T06:33:22.066Z,99.90
2018-09-08T06:35:49.575Z,99.90
2018-09-08T06:38:17.115Z,99.90
2018-09-08T06:40:44.626Z,99.90
2018-09-08T06:43:12.158Z,99.90
2018-09-08T06:45:39.890Z,99.90
2018-09-08T06:48:07.393Z,99.90
2018-09-08T06:50:34.918Z,99.90
2018-09-08T06:53:02.510Z,99.90
2018-09-08T06:55:30.006Z,99.90
2018-09-08T06:57:58.086Z,99.90
2018-09-08T07:00:25.548Z,99.90
2018-09-08T07:02:53.033Z,99.90
2018-09-08T07:05:20.574Z,99.90
2018-09-08T07:07:48.072Z,99.90
2018-09-08T07:10:15.561Z,99.90
2018-09-08T07:12:43.104Z,99.90
2018-09-08T07:15:10.712Z,99.90
2018-09-08T07:17:38.273Z,99.90
2018-09-08T07:20:06.132Z,99.90
2018-09-08T07:22:33.610Z,99.90
2018-09-08T07:25:01.146Z,99.90
2018-09-08T07:27:28.675Z,99.90
2018-09-08T07:29:56.192Z,99.90
2018-09-08T07:32:23.684Z,99.90
2018-09-08T07:34:51.262Z,99.90
2018-09-08T07:37:18.759Z,99.90
2018-09-08T07:39:46.262Z,99.90
2018-09-08T07:42:13.806Z,99.90
2018-09-08T07:44:41.323Z,99.90
2018-09-08T07:47:08.841Z,99.90
2018-09-08T07:49:36.405Z,99.90
2018-09-08T07:52:03.942Z,99.90
2018-09-08T07:54:31.457Z,99.90
2018-09-08T07:56:59.098Z,99.90
2018-09-08T07:59:26.687Z,99.90
2018-09-08T08:01:54.204Z,99.90
2018-09-08T08:04:21.740Z,99.90
2018-09-08T08:06:49.297Z,99.90
2018-09-08T08:09:16.752Z,99.90
2018-09-08T08:11:44.399Z,99.90
2018-09-08T08:14:11.920Z,99.90
2018-09-08T08:16:39.418Z,99.90
2018-09-08T08:19:06.968Z,99.90
2018-09-08T08:21:34.490Z,99.90
2018-09-08T08:24:01.982Z,99.90
2018-09-08T08:26:29.494Z,99.90
2018-09-08T08:28:57.032Z,99.90
2018-09-08T08:31:24.512Z,99.90
2018-09-08T08:33:52.120Z,99.90
2018-09-08T08:36:19.711Z,99.90
2018-09-08T08:38:47.237Z,99.90
2018-09-08T08:41:14.756Z,99.90
2018-09-08T08:43:42.242Z,99.90
2018-09-08T08:46:09.736Z,99.90
2018-09-08T08:48:37.263Z,99.90
2018-09-08T08:51:16.051Z,99.90
2018-09-08T08:53:54.902Z,99.90
2018-09-08T08:56:22.425Z,99.90
2018-09-08T08:58:50.282Z,99.90
2018-09-08T09:01:17.802Z,99.90
2018-09-08T09:03:45.320Z,99.90
2018-09-08T09:06:12.842Z,99.90
2018-09-08T09:08:40.757Z,99.90
2018-09-08T09:11:07.887Z,99.90
2018-09-08T09:13:35.542Z,99.90
2018-09-08T09:16:03.001Z,99.90
2018-09-08T09:18:42.119Z,99.90
2018-09-08T09:21:20.796Z,99.90
2018-09-08T09:25:04.970Z,99.90
2018-09-08T09:27:33.970Z,99.90
2018-09-08T09:30:01.836Z,99.90
2018-09-08T09:32:29.377Z,99.90
2018-09-08T09:34:56.900Z,99.90
2018-09-08T09:37:24.515Z,99.90
2018-09-08T09:39:52.810Z,99.90
2018-09-08T09:42:20.313Z,99.90
2018-09-08T09:44:47.842Z,99.90
2018-09-08T09:47:15.368Z,99.90
2018-09-08T09:49:42.872Z,99.70
2018-09-08T09:52:10.424Z,99.20
2018-09-08T09:54:37.906Z,98.70
2018-09-08T09:57:05.440Z,98.00
2018-09-08T09:59:33.060Z,98.80
2018-09-08T10:02:03.306Z,98.60
2018-09-08T10:04:30.932Z,98.70
2018-09-08T10:06:58.472Z,98.60
2018-09-08T10:09:26.005Z,98.40
2018-09-08T10:11:53.594Z,97.60
2018-09-08T10:14:21.082Z,97.30
2018-09-08T10:16:48.698Z,97.70
2018-09-08T10:19:16.242Z,97.90
2018-09-08T10:21:44.438Z,97.70
2018-09-08T10:24:12.291Z,97.10
2018-09-08T10:26:39.877Z,97.10
2018-09-08T10:29:07.410Z,96.50
2018-09-08T10:31:34.954Z,97.10
2018-09-08T10:34:02.455Z,96.50
2018-09-08T10:36:29.992Z,95.90
2018-09-08T10:38:57.501Z,96.30
2018-09-08T10:41:25.081Z,96.20
2018-09-08T10:43:52.676Z,95.80
2018-09-08T10:46:20.219Z,95.80
2018-09-08T10:48:47.835Z,95.50
2018-09-08T10:52:28.217Z,95.20
2018-09-08T10:54:55.839Z,95.30
2018-09-08T10:57:23.491Z,94.80
2018-09-08T10:59:50.981Z,94.60
2018-09-08T11:02:18.794Z,94.50
2018-09-08T11:04:46.067Z,93.90
2018-09-08T11:07:13.565Z,94.50
2018-09-08T11:09:41.101Z,93.90
2018-09-08T11:12:09.014Z,93.90
2018-09-08T11:14:36.536Z,93.40
2018-09-08T11:17:04.083Z,92.60
2018-09-08T11:19:31.645Z,92.50
2018-09-08T11:21:59.159Z,90.70
2018-09-08T11:24:26.691Z,92.00
2018-09-08T11:26:54.453Z,91.60
2018-09-08T11:29:22.041Z,91.90
2018-09-08T11:31:49.568Z,91.60
2018-09-08T11:34:17.066Z,91.10
2018-09-08T11:36:45.270Z,91.10
2018-09-08T11:39:12.764Z,90.60
2018-09-08T11:41:40.270Z,89.70
2018-09-08T11:44:07.785Z,89.20
2018-09-08T11:46:35.292Z,89.40
2018-09-08T11:49:02.842Z,87.60
2018-09-08T11:51:30.508Z,87.30
2018-09-08T11:53:58.030Z,85.70
2018-09-08T11:56:25.586Z,84.80
2018-09-08T11:58:53.128Z,83.90
2018-09-08T12:01:20.701Z,82.50
2018-09-08T12:03:48.195Z,79.50
2018-09-08T12:06:15.724Z,80.70
2018-09-08T12:08:43.218Z,80.80
2018-09-08T12:11:10.723Z,79.40
2018-09-08T12:13:38.250Z,79.80
2018-09-08T12:16:05.874Z,77.70
2018-09-08T12:18:33.419Z,77.20
2018-09-08T12:21:00.962Z,77.00
2018-09-08T12:23:28.487Z,76.60
2018-09-08T12:25:56.022Z,77.00
2018-09-08T12:28:23.558Z,77.20
2018-09-08T12:30:51.189Z,76.40
2018-09-08T12:33:18.656Z,75.60
2018-09-08T12:35:46.156Z,75.50
2018-09-08T12:38:13.660Z,75.40
2018-09-08T12:40:41.180Z,75.00
2018-09-08T12:43:08.694Z,75.80
2018-09-08T12:45:36.202Z,75.20
2018-09-08T12:48:03.783Z,75.00
2018-09-08T12:50:31.344Z,75.00
2018-09-08T12:52:58.876Z,75.30
2018-09-08T12:55:26.474Z,75.60
2018-09-08T12:57:54.063Z,75.60
2018-09-08T13:00:21.598Z,75.90
2018-09-08T13:02:49.142Z,76.10
2018-09-08T13:05:16.642Z,75.80
2018-09-08T13:07:44.279Z,75.90
2018-09-08T13:10:11.746Z,74.90
2018-09-08T13:12:39.238Z,74.60
2018-09-08T13:15:06.858Z,74.20
2018-09-08T13:17:34.500Z,74.00
2018-09-08T13:20:02.061Z,73.60
2018-09-08T13:22:29.548Z,73.40
2018-09-08T13:24:57.303Z,73.20
2018-09-08T13:27:26.238Z,73.00
2018-09-08T13:29:53.813Z,73.40
2018-09-08T13:32:21.369Z,73.80
2018-09-08T13:34:49.013Z,73.60
2018-09-08T13:37:16.556Z,74.40
2018-09-08T13:39:44.195Z,74.80
2018-09-08T13:42:11.685Z,75.60
2018-09-08T13:44:39.263Z,75.60
2018-09-08T13:47:06.878Z,76.10
2018-09-08T13:49:34.352Z,76.70
2018-09-08T13:52:02.030Z,77.10
2018-09-08T13:54:29.538Z,77.70
2018-09-08T13:56:57.139Z,78.30
2018-09-08T13:59:24.631Z,77.90
2018-09-08T14:01:52.159Z,77.70
2018-09-08T14:04:19.735Z,77.50
2018-09-08T14:06:47.198Z,76.90
2018-09-08T14:09:14.796Z,75.90
2018-09-08T14:11:42.332Z,75.00
2018-09-08T14:14:09.923Z,73.70
2018-09-08T14:16:37.470Z,72.80
2018-09-08T14:19:05.297Z,73.40
2018-09-08T14:21:32.823Z,72.70
2018-09-08T14:24:00.341Z,72.60
2018-09-08T14:26:27.810Z,72.60
2018-09-08T14:28:55.347Z,71.90
2018-09-08T14:31:22.998Z,72.60
2018-09-08T14:33:50.495Z,72.60
2018-09-08T14:36:17.995Z,72.30
2018-09-08T14:38:45.518Z,72.40
2018-09-08T14:41:13.027Z,72.60
2018-09-08T14:43:40.537Z,72.80
2018-09-08T14:46:08.072Z,73.00
2018-09-08T14:48:35.585Z,73.10
2018-09-08T14:51:03.140Z,73.20
2018-09-08T14:53:30.680Z,73.40
2018-09-08T14:55:58.182Z,73.00
2018-09-08T14:58:25.675Z,73.50
2018-09-08T15:00:53.190Z,72.70
2018-09-08T15:03:20.660Z,73.30
2018-09-08T15:05:48.154Z,73.30
2018-09-08T15:08:15.697Z,73.20
2018-09-08T15:10:43.313Z,73.10
2018-09-08T15:13:10.843Z,73.30
2018-09-08T15:15:38.518Z,73.80
2018-09-08T15:18:06.041Z,73.80
2018-09-08T15:20:33.642Z,74.00
2018-09-08T15:23:01.191Z,74.30
2018-09-08T15:25:28.703Z,74.40
2018-09-08T15:27:56.218Z,74.80
2018-09-08T15:30:23.754Z,74.90
2018-09-08T15:32:51.296Z,74.60
2018-09-08T15:35:18.809Z,75.30
2018-09-08T15:37:46.701Z,75.50
2018-09-08T15:40:14.262Z,75.70
2018-09-08T15:42:41.853Z,74.70
2018-09-08T15:45:09.525Z,74.70
2018-09-08T15:47:37.072Z,74.50
2018-09-08T15:50:04.871Z,74.20
2018-09-08T15:52:32.401Z,74.70
2018-09-08T15:54:59.911Z,74.60
2018-09-08T15:57:27.588Z,74.90
2018-09-08T15:59:55.125Z,74.60
2018-09-08T16:02:22.615Z,74.70
2018-09-08T16:04:50.139Z,74.90
2018-09-08T16:07:17.671Z,75.30
2018-09-08T16:09:45.201Z,74.90
2018-09-08T16:12:12.679Z,75.10
2018-09-08T16:14:40.209Z,74.90
2018-09-08T16:17:08.077Z,74.80
2018-09-08T16:19:35.593Z,74.90
2018-09-08T16:22:03.161Z,75.10
2018-09-08T16:24:30.694Z,75.90
2018-09-08T16:26:58.227Z,75.90
2018-09-08T16:29:25.801Z,76.40
2018-09-08T16:31:53.328Z,76.60
2018-09-08T16:34:20.826Z,76.40
2018-09-08T16:36:48.339Z,76.60
2018-09-08T16:39:15.907Z,76.70
2018-09-08T16:41:43.412Z,76.90
2018-09-08T16:44:11.021Z,77.00
2018-09-08T16:46:38.504Z,77.40
2018-09-08T16:49:06.093Z,77.80
2018-09-08T16:51:33.653Z,78.20
2018-09-08T16:54:01.182Z,78.20
2018-09-08T16:56:28.717Z,78.80
2018-09-08T16:58:56.241Z,79.00
2018-09-08T17:01:23.942Z,79.80
2018-09-08T17:03:51.466Z,80.00
2018-09-08T17:06:19.116Z,80.40
2018-09-08T17:08:46.611Z,81.00
2018-09-08T17:11:14.107Z,81.20
2018-09-08T17:13:41.633Z,81.40
2018-09-08T17:16:09.160Z,81.70
2018-09-08T17:18:36.731Z,82.20
2018-09-08T17:21:04.304Z,82.40
2018-09-08T17:23:31.798Z,82.40
2018-09-08T17:25:59.360Z,82.20
2018-09-08T17:28:27.023Z,82.40
2018-09-08T17:30:54.546Z,82.50
2018-09-08T17:33:22.048Z,82.80
2018-09-08T17:35:49.631Z,83.70
2018-09-08T17:38:17.174Z,83.90
2018-09-08T17:40:44.848Z,84.30
2018-09-08T17:43:12.399Z,84.60
2018-09-08T17:45:39.927Z,85.20
2018-09-08T17:48:07.504Z,86.10
2018-09-08T17:50:35.026Z,86.90
2018-09-08T17:53:02.555Z,87.70
2018-09-08T17:55:30.380Z,88.30
2018-09-08T17:57:57.991Z,89.10
2018-09-08T18:00:25.510Z,89.50
2018-09-08T18:02:53.093Z,89.70
2018-09-08T18:05:20.635Z,90.10
2018-09-08T18:07:48.188Z,90.20
2018-09-08T18:10:15.714Z,90.20
2018-09-08T18:12:43.366Z,90.50
2018-09-08T18:15:10.928Z,90.70
2018-09-08T18:17:38.448Z,90.90
2018-09-08T18:20:06.166Z,91.30
2018-09-08T18:22:34.332Z,91.10
2018-09-08T18:25:01.882Z,91.20
2018-09-08T18:27:29.585Z,91.50
2018-09-08T18:29:57.128Z,91.90
2018-09-08T18:32:24.704Z,92.10
2018-09-08T18:34:52.230Z,92.20
2018-09-08T18:37:19.805Z,92.40
2018-09-08T18:39:47.391Z,92.90
2018-09-08T18:42:14.932Z,93.20
2018-09-08T18:44:42.515Z,93.50
2018-09-08T18:49:44.209Z,93.90
2018-09-08T18:52:11.858Z,94.30
2018-09-08T18:54:39.437Z,94.50
2018-09-08T18:57:07.290Z,94.60
2018-09-08T18:59:34.796Z,94.60
2018-09-08T19:02:02.360Z,94.80
2018-09-08T19:04:29.885Z,94.80
2018-09-08T19:06:57.502Z,94.80
2018-09-08T19:09:25.025Z,94.90
2018-09-08T19:11:52.559Z,95.00
2018-09-08T19:14:25.814Z,95.30
2018-09-08T19:16:53.347Z,95.40
2018-09-08T19:19:20.878Z,95.50
2018-09-08T19:21:48.410Z,95.70
2018-09-08T19:24:21.446Z,95.80
2018-09-08T19:26:48.951Z,95.90
2018-09-08T19:29:22.214Z,96.20
2018-09-08T19:31:49.866Z,96.30
2018-09-08T19:34:17.509Z,96.50
2018-09-08T19:36:45.094Z,96.60
2018-09-08T19:39:12.709Z,96.90
2018-09-08T19:41:40.510Z,97.10
2018-09-08T19:44:08.027Z,97.10
2018-09-08T19:46:41.169Z,97.00
2018-09-08T19:49:08.757Z,97.00
2018-09-08T19:51:36.332Z,97.00
2018-09-08T19:54:03.951Z,97.20
2018-09-08T19:56:37.123Z,97.30
2018-09-08T19:59:04.762Z,97.40
2018-09-08T20:01:32.477Z,97.30
2018-09-08T20:04:00.255Z,97.30
2018-09-08T20:06:27.798Z,97.30
2018-09-08T20:08:55.455Z,97.50
2018-09-08T20:11:23.067Z,97.40
2018-09-08T20:13:50.652Z,97.50
2018-09-08T20:16:18.241Z,97.60
2018-09-08T20:18:45.935Z,97.50
2018-09-08T20:21:13.430Z,97.50
2018-09-08T20:23:40.983Z,97.40
2018-09-08T20:26:08.545Z,97.80
2018-09-08T20:28:36.053Z,97.90
2018-09-08T20:31:03.598Z,98.00
2018-09-08T20:33:31.698Z,98.00
2018-09-08T20:35:59.473Z,98.10
2018-09-08T20:38:27.059Z,98.40
2018-09-08T20:40:54.715Z,98.40
2018-09-08T20:43:22.385Z,98.50
2018-09-08T20:45:49.959Z,98.40
2018-09-08T20:48:17.857Z,98.30
2018-09-08T20:50:45.443Z,98.10
2018-09-08T20:53:13.119Z,98.10
2018-09-08T20:55:40.691Z,98.00
2018-09-08T20:58:08.252Z,98.10
2018-09-08T21:00:35.764Z,98.10
2018-09-08T21:03:03.355Z,98.30
2018-09-08T21:05:30.960Z,98.30
2018-09-08T21:07:58.508Z,98.40
2018-09-08T21:10:26.051Z,98.60
2018-09-08T21:12:53.552Z,98.60
2018-09-08T21:15:21.068Z,98.70
2018-09-08T21:17:48.635Z,99.10
2018-09-08T21:20:16.143Z,99.30
2018-09-08T21:22:43.636Z,99.40
2018-09-08T21:25:11.152Z,99.40
2018-09-08T21:27:38.685Z,99.40
2018-09-08T21:30:06.248Z,99.50
2018-09-08T21:32:33.786Z,99.80
2018-09-08T21:35:01.317Z,99.80
2018-09-08T21:37:28.865Z,99.90
2018-09-08T21:39:56.415Z,99.90
2018-09-08T21:42:23.945Z,99.90
2018-09-08T21:44:51.463Z,99.90
2018-09-08T21:47:18.987Z,99.90
2018-09-08T21:49:46.515Z,99.90
2018-09-08T21:52:14.103Z,99.90
2018-09-08T21:54:41.645Z,99.90
2018-09-08T21:57:09.130Z,99.90
2018-09-08T21:59:36.647Z,99.90
2018-09-08T22:02:04.197Z,99.90
2018-09-08T22:04:31.699Z,99.90
2018-09-08T22:06:59.231Z,99.90
2018-09-08T22:09:26.777Z,99.90
2018-09-08T22:11:54.312Z,99.90
2018-09-08T22:14:21.875Z,99.90
2018-09-08T22:16:49.409Z,99.90
2018-09-08T22:19:17.017Z,99.90
2018-09-08T22:21:44.521Z,99.90
2018-09-08T22:24:12.066Z,99.90
2018-09-08T22:26:39.607Z,99.90
2018-09-08T22:29:07.131Z,99.90
2018-09-08T22:31:34.651Z,99.90
2018-09-08T22:34:02.161Z,99.90
2018-09-08T22:36:29.682Z,99.90
2018-09-08T22:38:57.271Z,99.90
2018-09-08T22:41:24.715Z,99.90
2018-09-08T22:43:53.391Z,99.90
2018-09-08T22:46:20.924Z,99.90
2018-09-08T22:48:48.446Z,99.90
2018-09-08T22:51:16.052Z,99.90
2018-09-08T22:53:43.533Z,99.90
2018-09-08T22:56:11.067Z,99.90
2018-09-08T22:58:38.663Z,99.90
2018-09-08T23:01:06.185Z,99.90
2018-09-08T23:03:33.665Z,99.90
2018-09-08T23:06:01.219Z,99.90
2018-09-08T23:08:28.938Z,99.90
2018-09-08T23:10:56.443Z,99.90
2018-09-08T23:13:23.965Z,99.90
2018-09-08T23:15:51.518Z,99.90
2018-09-08T23:18:19.071Z,99.90
2018-09-08T23:20:46.612Z,99.90
2018-09-08T23:23:14.126Z,99.90
2018-09-08T23:25:41.630Z,99.90
2018-09-08T23:28:09.192Z,99.90
2018-09-08T23:30:36.679Z,99.90
2018-09-08T23:33:04.209Z,99.90
2018-09-08T23:35:31.768Z,99.90
2018-09-08T23:37:59.253Z,99.90
2018-09-08T23:40:26.750Z,99.90
2018-09-08T23:42:54.278Z,99.90
2018-09-08T23:45:21.783Z,99.90
2018-09-08T23:47:49.280Z,99.90
2018-09-08T23:50:16.851Z,99.90
2018-09-08T23:52:44.340Z,99.90
2018-09-08T23:55:11.842Z,99.90
2018-09-08T23:57:39.402Z,99.90
